Time;durP1;ratioP1;P1;durP2;ratioP2;P2;SDS_P1;SDS_P2;PMS_P1;PMS_P2;Temp;Humidity;BMP_temperature;BMP_pressure;BME280_temperature;BME280_humidity;BME280_pressure;Samples;Min_cycle;Max_cycle;Signal;HPM_P1;HPM_P2
2023/01/30 00:01:41;;;;;;;11.57;7.80;;;4.80;99.90;;;;;;5033077;28;20549;-75
2023/01/30 00:04:06;;;;;;;12.73;7.20;;;4.90;99.90;;;;;;5033103;28;20448;-72
2023/01/30 00:06:32;;;;;;;15.90;8.47;;;4.90;99.90;;;;;;5031466;28;20418;-72
2023/01/30 00:08:58;;;;;;;14.80;7.03;;;4.90;99.90;;;;;;5054559;28;20194;-72
2023/01/30 00:11:24;;;;;;;13.47;7.37;;;4.90;99.90;;;;;;5056256;28;20461;-72
2023/01/30 00:13:50;;;;;;;9.67;6.53;;;5.00;99.90;;;;;;5051551;28;20171;-73
2023/01/30 00:16:16;;;;;;;14.07;8.00;;;5.00;99.90;;;;;;5051151;28;20175;-73
2023/01/30 00:18:43;;;;;;;14.47;7.73;;;4.90;99.90;;;;;;5052627;28;20421;-71
2023/01/30 00:21:11;;;;;;;16.27;9.07;;;4.90;99.90;;;;;;5052644;28;20405;-71
2023/01/30 00:23:37;;;;;;;19.53;9.00;;;4.90;99.90;;;;;;5052666;28;20412;-72
2023/01/30 00:26:04;;;;;;;15.70;8.03;;;4.90;99.90;;;;;;5052378;28;20417;-73
2023/01/30 00:28:30;;;;;;;12.90;7.23;;;4.90;99.90;;;;;;5052274;28;20190;-73
2023/01/30 00:30:56;;;;;;;15.37;9.27;;;5.00;99.90;;;;;;5052420;28;20471;-72
2023/01/30 00:33:23;;;;;;;14.20;8.10;;;4.90;99.90;;;;;;5052147;28;20171;-73
2023/01/30 00:35:50;;;;;;;10.63;7.40;;;5.00;99.90;;;;;;5051608;28;20174;-72
2023/01/30 00:38:17;;;;;;;16.40;8.47;;;5.00;99.90;;;;;;5052357;28;20414;-75
2023/01/30 00:40:43;;;;;;;16.17;8.03;;;5.00;99.90;;;;;;5052306;28;20408;-73
2023/01/30 00:48:42;;;;;;;16.23;8.07;;;5.10;99.90;;;;;;5039815;28;20465;-73
2023/01/30 00:51:07;;;;;;;23.57;9.87;;;5.00;99.90;;;;;;5030867;28;20478;-73
2023/01/30 00:53:33;;;;;;;14.17;6.90;;;5.00;99.90;;;;;;5032223;28;20192;-72
2023/01/30 00:55:58;;;;;;;15.67;8.07;;;5.00;99.90;;;;;;5031799;28;20247;-72
2023/01/30 00:58:24;;;;;;;18.73;8.77;;;5.10;99.90;;;;;;5032169;28;20237;-72
2023/01/30 01:00:50;;;;;;;17.53;8.37;;;5.00;99.90;;;;;;5032077;28;20179;-72
2023/01/30 01:03:16;;;;;;;12.00;7.00;;;5.00;99.90;;;;;;5032081;28;20174;-72
2023/01/30 01:05:42;;;;;;;16.43;9.27;;;5.00;99.90;;;;;;5031648;28;20414;-71
2023/01/30 01:08:08;;;;;;;13.13;6.53;;;5.00;99.90;;;;;;5032014;28;20489;-71
2023/01/30 01:10:34;;;;;;;16.00;8.20;;;5.10;99.90;;;;;;5031791;28;20545;-72
2023/01/30 01:13:01;;;;;;;17.03;9.10;;;5.10;99.90;;;;;;5032069;28;20402;-73
2023/01/30 01:15:27;;;;;;;17.33;8.93;;;5.20;99.90;;;;;;5031654;28;20170;-72
2023/01/30 01:17:53;;;;;;;22.37;10.43;;;5.30;99.90;;;;;;5044718;28;20413;-72
2023/01/30 01:20:19;;;;;;;15.83;8.03;;;5.20;99.90;;;;;;5059039;28;20205;-72
2023/01/30 01:22:48;;;;;;;13.63;7.50;;;5.20;99.90;;;;;;5056428;28;20424;-70
2023/01/30 01:25:14;;;;;;;13.80;8.37;;;5.10;99.90;;;;;;5051542;28;20749;-70
2023/01/30 01:27:39;;;;;;;15.63;8.03;;;5.10;99.90;;;;;;5051679;28;20420;-70
2023/01/30 01:30:05;;;;;;;13.90;8.00;;;5.10;99.90;;;;;;5050309;28;20191;-71
2023/01/30 01:32:31;;;;;;;17.90;9.60;;;5.10;99.90;;;;;;5051550;28;20170;-72
2023/01/30 01:34:56;;;;;;;13.07;7.73;;;5.10;99.90;;;;;;5051437;28;20462;-72
2023/01/30 01:37:22;;;;;;;25.00;9.07;;;5.10;99.90;;;;;;5050325;28;20169;-71
2023/01/30 01:42:37;;;;;;;11.33;7.07;;;5.10;99.90;;;;;;5042361;28;20194;-71
2023/01/30 01:45:02;;;;;;;14.83;8.87;;;5.10;99.90;;;;;;5046852;28;20425;-71
2023/01/30 01:47:29;;;;;;;12.87;7.67;;;5.00;99.90;;;;;;5032808;28;20801;-71
2023/01/30 01:49:55;;;;;;;17.87;10.40;;;5.00;99.90;;;;;;5035379;28;20195;-72
2023/01/30 01:52:22;;;;;;;11.10;8.73;;;5.10;99.90;;;;;;5035561;28;20425;-72
2023/01/30 01:54:53;;;;;;;14.30;7.90;;;5.10;99.90;;;;;;5035206;28;20160;-72
2023/01/30 01:57:27;;;;;;;11.60;7.60;;;5.10;99.90;;;;;;5035566;28;20410;-71
2023/01/30 02:00:05;;;;;;;20.47;8.60;;;5.10;99.90;;;;;;5035282;28;20912;-71
2023/01/30 02:02:32;;;;;;;13.13;7.80;;;5.00;99.90;;;;;;5035425;28;20432;-71
2023/01/30 02:05:02;;;;;;;22.43;9.90;;;5.10;99.90;;;;;;5035013;28;20394;-72
2023/01/30 02:07:53;;;;;;;18.00;9.40;;;5.10;99.90;;;;;;5035339;28;20412;-71
2023/01/30 02:10:23;;;;;;;16.40;8.10;;;5.10;99.90;;;;;;5037648;28;20468;-71
2023/01/30 02:12:50;;;;;;;12.90;7.23;;;5.10;99.90;;;;;;5054926;28;20862;-71
2023/01/30 02:15:16;;;;;;;15.40;9.27;;;5.00;99.90;;;;;;5053458;28;20433;-71
2023/01/30 02:17:42;;;;;;;18.27;9.37;;;5.10;99.90;;;;;;5055000;28;20399;-72
2023/01/30 02:20:31;;;;;;;16.80;9.33;;;5.10;99.90;;;;;;5054996;28;20981;-69
2023/01/30 02:23:17;;;;;;;14.30;8.40;;;5.00;99.90;;;;;;5054929;28;20155;-70
2023/01/30 02:26:08;;;;;;;17.27;9.30;;;5.10;99.90;;;;;;5054541;28;20405;-71
2023/01/30 02:29:09;;;;;;;16.40;7.90;;;5.10;99.90;;;;;;5054791;28;20914;-72
2023/01/30 02:31:45;;;;;;;17.57;8.57;;;5.10;99.90;;;;;;5060039;28;20452;-71
2023/01/30 02:34:44;;;;;;;18.60;9.37;;;5.10;99.90;;;;;;5059495;28;20401;-71
2023/01/30 02:37:35;;;;;;;10.00;7.13;;;5.10;99.90;;;;;;5054399;28;20519;-72
2023/01/30 02:40:15;;;;;;;17.00;8.43;;;5.00;99.90;;;;;;5053582;28;20421;-71
2023/01/30 02:42:55;;;;;;;16.67;9.43;;;5.00;99.90;;;;;;5049040;28;20416;-72
2023/01/30 02:45:49;;;;;;;16.43;8.30;;;5.00;99.90;;;;;;5048437;28;20433;-71
2023/01/30 02:48:27;;;;;;;16.40;9.40;;;4.90;99.90;;;;;;5034420;28;20453;-71
2023/01/30 02:50:57;;;;;;;17.80;7.57;;;4.90;99.90;;;;;;5034470;28;20437;-72
2023/01/30 02:53:23;;;;;;;16.40;10.10;;;4.90;99.90;;;;;;5034271;28;20399;-72
2023/01/30 02:55:48;;;;;;;14.57;8.87;;;5.00;99.90;;;;;;5034108;28;20950;-73
2023/01/30 02:58:19;;;;;;;11.83;7.70;;;5.00;99.90;;;;;;5034162;28;20649;-73
2023/01/30 03:01:19;;;;;;;14.73;8.50;;;5.00;99.90;;;;;;5033813;28;20635;-72
2023/01/30 03:04:09;;;;;;;12.53;6.93;;;5.00;99.90;;;;;;5034246;28;20451;-70
2023/01/30 03:07:05;;;;;;;15.77;9.37;;;5.00;99.90;;;;;;5034071;28;20402;-73
2023/01/30 03:09:45;;;;;;;16.97;9.33;;;4.90;99.90;;;;;;5034295;28;20500;-74
2023/01/30 03:12:42;;;;;;;12.80;8.33;;;4.90;99.90;;;;;;5034025;28;20450;-74
2023/01/30 03:15:26;;;;;;;16.57;9.00;;;4.90;99.90;;;;;;5032436;28;20434;-70
2023/01/30 03:17:53;;;;;;;13.23;8.00;;;4.90;99.90;;;;;;5034055;28;20481;-70
2023/01/30 03:20:19;;;;;;;14.57;8.07;;;4.90;99.90;;;;;;5032579;28;20779;-72
2023/01/30 03:22:45;;;;;;;11.93;7.67;;;5.00;99.90;;;;;;5033976;28;20453;-73
2023/01/30 03:25:24;;;;;;;13.97;7.77;;;5.00;99.90;;;;;;5033608;28;20398;-72
2023/01/30 03:27:52;;;;;;;16.80;9.27;;;5.10;99.90;;;;;;5033838;28;20398;-71
2023/01/30 03:30:18;;;;;;;18.70;9.13;;;5.20;99.90;;;;;;5033620;28;20484;-72
2023/01/30 03:32:44;;;;;;;17.60;8.70;;;5.20;99.90;;;;;;5033666;28;20888;-72
2023/01/30 03:35:10;;;;;;;15.93;8.20;;;5.20;99.90;;;;;;5033523;28;20406;-70
2023/01/30 03:37:35;;;;;;;13.57;8.47;;;5.20;99.90;;;;;;5033589;28;20167;-69
2023/01/30 03:40:01;;;;;;;12.30;8.63;;;5.20;99.90;;;;;;5038192;28;20202;-70
2023/01/30 03:42:27;;;;;;;16.63;10.03;;;5.30;99.90;;;;;;5051923;28;20194;-73
2023/01/30 03:44:53;;;;;;;10.87;8.10;;;5.30;99.90;;;;;;5062209;28;20647;-70
2023/01/30 03:47:18;;;;;;;14.50;9.53;;;5.40;99.90;;;;;;5033419;28;20218;-71
2023/01/30 03:49:44;;;;;;;13.10;7.53;;;5.40;99.90;;;;;;5033435;28;20219;-73
2023/01/30 03:52:09;;;;;;;14.17;8.07;;;5.40;99.90;;;;;;5033322;28;20202;-70
2023/01/30 03:54:35;;;;;;;13.70;8.23;;;5.50;99.90;;;;;;5032912;28;20167;-72
2023/01/30 03:57:00;;;;;;;14.57;8.90;;;5.50;99.90;;;;;;5033603;28;20637;-70
2023/01/30 03:59:26;;;;;;;13.83;8.27;;;5.50;99.90;;;;;;5033097;28;20198;-73
2023/01/30 04:01:51;;;;;;;13.53;8.37;;;5.50;99.90;;;;;;5033228;28;20172;-73
2023/01/30 04:04:17;;;;;;;13.70;7.87;;;5.60;99.90;;;;;;5032798;28;20176;-72
2023/01/30 04:06:42;;;;;;;14.20;7.97;;;5.60;99.90;;;;;;5033183;28;20545;-71
2023/01/30 04:09:08;;;;;;;12.07;8.10;;;5.60;99.90;;;;;;5031428;28;20249;-70
2023/01/30 04:11:33;;;;;;;10.83;6.90;;;5.50;99.90;;;;;;5032084;28;20195;-72
2023/01/30 04:13:59;;;;;;;10.83;7.90;;;5.60;99.90;;;;;;5032893;28;20166;-74
2023/01/30 04:16:26;;;;;;;11.63;7.50;;;5.60;99.90;;;;;;5032691;28;20683;-74
2023/01/30 04:18:51;;;;;;;12.50;7.77;;;5.50;99.90;;;;;;5032814;28;20203;-71
2023/01/30 04:21:18;;;;;;;20.23;8.10;;;5.50;99.90;;;;;;5031515;28;20924;-70
2023/01/30 04:23:43;;;;;;;12.20;7.40;;;5.50;99.90;;;;;;5032625;28;20179;-75
2023/01/30 04:26:10;;;;;;;12.93;6.57;;;5.40;99.90;;;;;;5032352;28;20441;-72
2023/01/30 04:28:36;;;;;;;10.90;6.50;;;5.50;99.90;;;;;;5032538;28;20426;-72
2023/01/30 04:31:01;;;;;;;14.70;7.70;;;5.50;99.90;;;;;;5032529;28;20789;-71
2023/01/30 04:33:27;;;;;;;14.33;7.90;;;5.50;99.90;;;;;;5032675;28;20398;-73
2023/01/30 04:35:53;;;;;;;15.47;8.77;;;5.60;99.90;;;;;;5032252;28;20163;-71
2023/01/30 04:38:20;;;;;;;12.33;7.73;;;5.60;99.90;;;;;;5032443;28;20168;-71
2023/01/30 04:40:49;;;;;;;11.23;6.93;;;5.60;99.90;;;;;;5043164;28;20413;-72
2023/01/30 04:43:15;;;;;;;12.10;7.07;;;5.60;99.90;;;;;;5052138;28;20409;-73
2023/01/30 04:45:45;;;;;;;12.40;7.67;;;5.60;99.90;;;;;;5043587;28;20865;-72
2023/01/30 04:48:11;;;;;;;10.97;6.77;;;5.60;99.90;;;;;;5032328;28;20183;-74
2023/01/30 04:50:37;;;;;;;15.23;9.27;;;5.60;99.90;;;;;;5056608;28;20444;-71
2023/01/30 04:53:03;;;;;;;13.73;8.43;;;5.60;99.90;;;;;;5054191;28;20421;-73
2023/01/30 04:55:29;;;;;;;12.90;7.93;;;5.60;99.90;;;;;;5051898;28;20452;-72
2023/01/30 04:57:54;;;;;;;12.20;8.53;;;5.60;99.90;;;;;;5050824;28;20169;-74
2023/01/30 05:00:20;;;;;;;14.50;8.63;;;5.60;99.90;;;;;;5052116;28;20273;-72
2023/01/30 05:02:45;;;;;;;15.60;8.00;;;5.50;99.90;;;;;;5050793;28;20174;-74
2023/01/30 05:05:11;;;;;;;14.13;7.80;;;5.50;99.90;;;;;;5051733;28;20178;-74
2023/01/30 05:07:36;;;;;;;17.13;7.60;;;5.40;99.90;;;;;;5051980;28;20212;-73
2023/01/30 05:10:02;;;;;;;14.00;7.43;;;5.40;99.90;;;;;;5051194;28;20214;-73
2023/01/30 05:12:29;;;;;;;15.37;9.10;;;5.40;99.90;;;;;;5051970;28;20183;-71
2023/01/30 05:14:55;;;;;;;12.20;7.83;;;5.30;99.90;;;;;;5051582;28;20204;-73
2023/01/30 05:17:20;;;;;;;14.50;8.67;;;5.30;99.90;;;;;;5051936;28;20441;-73
2023/01/30 05:19:46;;;;;;;11.20;7.93;;;5.30;99.90;;;;;;5051778;28;20187;-73
2023/01/30 05:22:11;;;;;;;11.47;7.37;;;5.20;99.90;;;;;;5051625;28;20567;-73
2023/01/30 05:24:37;;;;;;;10.90;7.50;;;5.30;99.90;;;;;;5051840;28;20174;-73
2023/01/30 05:27:02;;;;;;;15.50;10.03;;;5.20;99.90;;;;;;5051812;28;20220;-74
2023/01/30 05:29:28;;;;;;;14.57;10.30;;;5.20;99.90;;;;;;5051673;28;20199;-74
2023/01/30 05:31:53;;;;;;;13.13;7.30;;;5.20;99.90;;;;;;5051605;28;20201;-72
2023/01/30 05:34:19;;;;;;;14.77;8.67;;;5.20;99.90;;;;;;5051510;28;20186;-73
2023/01/30 05:36:44;;;;;;;15.40;7.37;;;5.10;99.90;;;;;;5051618;28;20163;-71
2023/01/30 05:39:10;;;;;;;16.40;9.53;;;5.20;99.90;;;;;;5045839;28;20226;-73
2023/01/30 05:41:36;;;;;;;12.30;7.70;;;5.10;99.90;;;;;;5031889;28;20178;-74
2023/01/30 05:44:01;;;;;;;19.20;8.30;;;5.10;99.90;;;;;;5031767;28;20176;-74
2023/01/30 05:46:27;;;;;;;15.87;8.47;;;5.10;99.90;;;;;;5031358;28;20176;-72
2023/01/30 05:48:52;;;;;;;10.13;7.33;;;5.10;99.90;;;;;;5031672;28;20278;-73
2023/01/30 05:51:20;;;;;;;12.30;8.37;;;5.20;99.90;;;;;;5031564;28;20237;-72
2023/01/30 05:53:46;;;;;;;10.07;7.13;;;5.10;99.90;;;;;;5031667;28;20168;-73
2023/01/30 05:56:12;;;;;;;11.50;7.90;;;5.10;99.90;;;;;;5031370;28;20402;-73
2023/01/30 05:58:37;;;;;;;12.30;8.07;;;5.10;99.90;;;;;;5031529;28;20550;-73
2023/01/30 06:01:05;;;;;;;9.40;5.73;;;5.10;99.90;;;;;;5038452;28;20819;-74
2023/01/30 06:03:31;;;;;;;13.30;7.43;;;5.00;99.90;;;;;;5062125;28;20186;-73
2023/01/30 06:05:57;;;;;;;13.07;7.10;;;5.10;99.90;;;;;;5051155;28;20397;-71
2023/01/30 06:08:23;;;;;;;10.63;7.23;;;5.00;99.90;;;;;;5051279;28;20214;-72
2023/01/30 06:10:48;;;;;;;9.40;6.57;;;5.00;99.90;;;;;;5051177;28;20213;-72
2023/01/30 06:13:14;;;;;;;10.97;7.20;;;5.10;99.90;;;;;;5050007;28;20417;-72
2023/01/30 06:15:39;;;;;;;11.77;6.53;;;5.10;99.90;;;;;;5051115;28;20202;-72
2023/01/30 06:18:05;;;;;;;6.23;5.47;;;5.20;99.90;;;;;;5040651;28;20258;-73
2023/01/30 06:20:30;;;;;;;7.43;5.70;;;5.20;99.90;;;;;;5031288;28;20188;-72
2023/01/30 06:22:56;;;;;;;9.07;5.70;;;5.20;99.90;;;;;;5031398;28;20622;-74
2023/01/30 06:25:21;;;;;;;7.27;5.30;;;5.20;99.90;;;;;;5030948;28;20198;-73
2023/01/30 06:27:47;;;;;;;9.07;6.00;;;5.30;99.90;;;;;;5030057;28;20172;-73
2023/01/30 06:30:13;;;;;;;9.93;5.30;;;5.30;99.90;;;;;;5031064;28;20196;-74
2023/01/30 06:32:38;;;;;;;7.17;5.50;;;5.30;99.90;;;;;;5031694;28;20176;-73
2023/01/30 06:35:04;;;;;;;7.43;5.77;;;5.30;99.90;;;;;;5032827;28;20214;-72
2023/01/30 06:37:30;;;;;;;8.97;5.90;;;5.30;99.90;;;;;;5034758;28;20570;-71
2023/01/30 06:39:55;;;;;;;7.60;6.47;;;5.30;99.90;;;;;;5034586;28;20933;-72
2023/01/30 06:42:21;;;;;;;12.07;6.17;;;5.30;99.90;;;;;;5034662;28;20290;-73
2023/01/30 06:44:46;;;;;;;6.60;5.23;;;5.30;99.90;;;;;;5034309;28;20160;-73
2023/01/30 06:47:12;;;;;;;8.07;5.00;;;5.30;99.90;;;;;;5034478;28;20199;-73
2023/01/30 06:49:37;;;;;;;7.97;4.70;;;5.30;99.90;;;;;;5033130;28;20258;-74
2023/01/30 06:52:03;;;;;;;7.87;5.70;;;5.30;99.90;;;;;;5034371;28;20206;-73
2023/01/30 06:54:29;;;;;;;11.70;5.87;;;5.30;99.90;;;;;;5034196;28;20597;-73
2023/01/30 06:56:54;;;;;;;8.17;5.20;;;5.40;99.90;;;;;;5034375;28;20160;-73
2023/01/30 06:59:20;;;;;;;10.43;5.93;;;5.40;99.90;;;;;;5033152;28;20187;-72
2023/01/30 07:01:45;;;;;;;11.57;6.53;;;5.50;99.90;;;;;;5052024;28;20266;-72
2023/01/30 07:04:11;;;;;;;9.30;6.00;;;5.60;99.90;;;;;;5054059;28;20163;-73
2023/01/30 07:06:36;;;;;;;8.27;6.43;;;5.70;99.90;;;;;;5053834;28;20174;-73
2023/01/30 07:09:03;;;;;;;10.60;6.97;;;5.70;99.90;;;;;;5053813;28;20340;-72
2023/01/30 07:11:29;;;;;;;8.50;5.90;;;5.80;99.90;;;;;;5054186;28;20233;-73
2023/01/30 07:13:55;;;;;;;8.87;6.80;;;5.90;99.90;;;;;;5064675;28;20500;-73
2023/01/30 07:16:27;;;;;;;11.37;6.67;;;5.90;99.90;;;;;;5052464;28;20501;-74
2023/01/30 07:18:55;;;;;;;11.10;6.13;;;5.90;99.90;;;;;;5053871;28;21009;-74
2023/01/30 07:21:20;;;;;;;10.23;6.50;;;5.90;99.90;;;;;;5054019;28;20435;-74
2023/01/30 07:23:46;;;;;;;10.00;6.07;;;5.90;99.90;;;;;;5053304;28;21000;-74
2023/01/30 07:26:11;;;;;;;7.53;5.57;;;5.90;99.90;;;;;;5053500;28;20163;-74
2023/01/30 07:28:37;;;;;;;6.80;5.73;;;6.00;99.90;;;;;;5053719;28;20225;-73
2023/01/30 07:31:02;;;;;;;9.90;6.03;;;6.10;99.90;;;;;;5037154;28;20201;-73
2023/01/30 07:33:28;;;;;;;10.80;7.00;;;6.10;99.90;;;;;;5033637;28;20258;-73
2023/01/30 07:35:54;;;;;;;8.80;6.27;;;6.10;99.90;;;;;;5033309;28;20170;-72
2023/01/30 07:38:19;;;;;;;9.60;7.27;;;6.10;99.90;;;;;;5033593;28;20175;-73
2023/01/30 07:40:45;;;;;;;7.60;5.57;;;6.20;99.90;;;;;;5034856;28;20899;-73
2023/01/30 07:43:12;;;;;;;8.73;5.90;;;6.20;99.90;;;;;;5053659;28;20508;-74
2023/01/30 07:45:46;;;;;;;7.90;4.97;;;6.30;99.90;;;;;;5044824;28;20616;-73
2023/01/30 07:48:14;;;;;;;6.90;5.67;;;6.40;99.90;;;;;;5033392;28;20403;-73
2023/01/30 07:50:40;;;;;;;9.33;5.73;;;6.50;99.90;;;;;;5033195;28;20465;-72
2023/01/30 07:53:09;;;;;;;7.00;5.73;;;6.50;99.90;;;;;;5033305;28;20778;-73
2023/01/30 07:55:35;;;;;;;7.63;5.87;;;6.60;99.90;;;;;;5033197;28;20796;-72
2023/01/30 07:58:01;;;;;;;6.63;5.20;;;6.70;99.90;;;;;;5033207;28;20413;-73
2023/01/30 08:00:26;;;;;;;10.47;5.60;;;6.80;99.90;;;;;;5031780;28;20446;-73
2023/01/30 08:02:52;;;;;;;11.30;5.73;;;7.00;99.90;;;;;;5033132;28;20176;-73
2023/01/30 08:05:17;;;;;;;10.87;6.13;;;7.00;99.90;;;;;;5032899;28;20696;-73
2023/01/30 08:07:43;;;;;;;6.13;4.80;;;7.10;99.90;;;;;;5032962;28;20172;-71
2023/01/30 08:10:09;;;;;;;6.90;5.77;;;7.10;99.90;;;;;;5034205;28;20598;-73
2023/01/30 08:12:35;;;;;;;8.10;5.13;;;7.20;99.90;;;;;;5052914;28;20167;-72
2023/01/30 08:15:00;;;;;;;9.10;5.80;;;7.10;99.90;;;;;;5052501;28;20413;-73
2023/01/30 08:17:26;;;;;;;8.13;6.17;;;7.10;99.90;;;;;;5052816;28;20285;-71
2023/01/30 08:19:51;;;;;;;8.10;6.17;;;7.20;99.90;;;;;;5052582;28;20564;-70
2023/01/30 08:22:17;;;;;;;13.63;5.83;;;7.20;99.90;;;;;;5052747;28;20576;-72
2023/01/30 08:24:42;;;;;;;10.47;6.00;;;7.30;99.90;;;;;;5059020;28;20178;-71
2023/01/30 08:27:08;;;;;;;7.00;6.30;;;7.30;99.90;;;;;;5058156;28;20170;-70
2023/01/30 08:29:33;;;;;;;12.93;6.63;;;7.40;99.90;;;;;;5050199;28;20546;-71
2023/01/30 08:32:00;;;;;;;14.80;8.20;;;7.70;99.90;;;;;;5046320;28;20229;-73
2023/01/30 08:34:26;;;;;;;15.53;7.87;;;8.20;99.90;;;;;;5052118;28;20167;-72
2023/01/30 08:36:52;;;;;;;9.50;7.50;;;8.40;99.90;;;;;;5052467;28;20424;-72
2023/01/30 08:39:17;;;;;;;10.17;6.67;;;8.50;99.90;;;;;;5051004;28;20429;-73
2023/01/30 08:41:43;;;;;;;9.20;6.97;;;8.50;99.90;;;;;;5052525;28;20216;-73
2023/01/30 08:44:09;;;;;;;10.03;7.20;;;8.60;99.90;;;;;;5052262;28;20532;-73
2023/01/30 08:46:35;;;;;;;11.20;6.77;;;8.60;99.90;;;;;;5036142;28;20176;-72
2023/01/30 08:49:00;;;;;;;8.70;6.17;;;8.70;99.90;;;;;;5032353;28;20448;-70
2023/01/30 08:51:26;;;;;;;13.70;7.93;;;9.00;99.90;;;;;;5032159;28;20668;-72
2023/01/30 08:53:51;;;;;;;15.10;8.00;;;9.80;99.90;;;;;;5042331;28;20181;-71
2023/01/30 08:56:17;;;;;;;16.97;9.60;;;10.70;99.90;;;;;;5051814;28;20170;-72
2023/01/30 08:58:44;;;;;;;11.80;6.93;;;12.30;99.90;;;;;;5051725;28;20792;-72
2023/01/30 09:01:10;;;;;;;9.00;5.47;;;13.70;99.90;;;;;;5052057;28;20159;-72
2023/01/30 09:03:35;;;;;;;5.20;3.80;;;14.30;99.90;;;;;;5052054;28;20482;-72
2023/01/30 09:06:01;;;;;;;5.90;3.57;;;15.30;99.90;;;;;;5051811;28;20170;-73
2023/01/30 09:08:26;;;;;;;5.70;2.90;;;16.50;99.90;;;;;;5051920;28;20171;-73
2023/01/30 09:10:56;;;;;;;8.00;3.60;;;17.60;99.90;;;;;;5051854;28;20795;-74
2023/01/30 09:13:21;;;;;;;4.10;2.40;;;18.60;99.90;;;;;;5050535;28;20704;-72
2023/01/30 09:15:47;;;;;;;6.23;3.17;;;19.70;99.90;;;;;;5051636;28;20481;-73
2023/01/30 09:18:12;;;;;;;4.20;2.17;;;20.30;91.80;;;;;;5051805;28;20170;-72
2023/01/30 09:20:38;;;;;;;3.47;1.77;;;20.60;79.90;;;;;;5051735;28;20697;-73
2023/01/30 09:23:03;;;;;;;5.77;2.43;;;20.80;78.10;;;;;;5051504;28;20192;-70
2023/01/30 09:25:29;;;;;;;5.40;2.00;;;21.20;75.70;;;;;;5031768;28;20176;-72
2023/01/30 09:27:54;;;;;;;4.27;2.23;;;21.80;72.20;;;;;;5031844;28;20159;-70
2023/01/30 09:30:20;;;;;;;4.30;1.93;;;22.10;66.40;;;;;;5031667;28;20649;-72
2023/01/30 09:32:47;;;;;;;5.10;2.57;;;22.30;64.30;;;;;;5043142;28;20173;-71
2023/01/30 09:35:12;;;;;;;5.10;2.13;;;22.30;61.60;;;;;;5051611;28;20197;-74
2023/01/30 09:37:45;;;;;;;4.90;2.17;;;22.60;60.50;;;;;;5051739;28;20494;-70
2023/01/30 09:40:15;;;;;;;8.10;1.87;;;23.00;59.10;;;;;;5051881;28;20707;-71
2023/01/30 09:43:16;;;;;;;6.43;2.23;;;23.30;58.10;;;;;;5051791;28;20405;-71
2023/01/30 09:46:13;;;;;;;3.43;1.87;;;23.50;56.40;;;;;;5042613;28;20506;-71
2023/01/30 09:48:54;;;;;;;8.40;2.20;;;23.90;55.40;;;;;;5030232;28;20418;-73
2023/01/30 09:51:50;;;;;;;5.13;1.93;;;24.00;53.70;;;;;;5031467;28;20553;-71
2023/01/30 09:54:37;;;;;;;8.73;1.90;;;24.00;52.20;;;;;;5048699;28;20418;-70
2023/01/30 09:57:20;;;;;;;10.57;2.10;;;23.90;52.10;;;;;;5031607;28;20417;-70
2023/01/30 09:59:51;;;;;;;5.27;1.80;;;24.20;52.60;;;;;;5031591;28;20422;-71
2023/01/30 10:03:00;;;;;;;5.87;2.40;;;24.50;51.70;;;;;;5031557;28;20428;-71
2023/01/30 10:05:40;;;;;;;5.93;1.90;;;24.50;50.80;;;;;;5031171;28;20410;-71
2023/01/30 10:08:30;;;;;;;10.77;2.43;;;24.10;50.10;;;;;;5031556;28;20425;-71
2023/01/30 10:10:55;;;;;;;3.77;2.20;;;23.50;49.90;;;;;;5035206;28;20978;-71
2023/01/30 10:13:27;;;;;;;4.93;2.33;;;22.90;49.70;;;;;;5035112;28;20416;-71
2023/01/30 10:16:21;;;;;;;7.97;1.87;;;22.60;50.10;;;;;;5034711;28;20168;-72
2023/01/30 10:19:20;;;;;;;3.87;2.10;;;22.50;50.90;;;;;;4999056;28;20847;-72
2023/01/30 10:21:53;;;;;;;5.13;2.23;;;21.60;50.90;;;;;;5037098;28;20449;-71
2023/01/30 10:24:30;;;;;;;6.90;2.90;;;20.20;51.30;;;;;;5040979;28;20887;-71
2023/01/30 10:26:56;;;;;;;7.10;2.57;;;18.90;52.70;;;;;;5035000;28;20444;-71
2023/01/30 10:29:34;;;;;;;5.60;2.37;;;17.70;53.80;;;;;;5034724;28;20413;-72
2023/01/30 10:32:24;;;;;;;7.60;2.17;;;16.70;55.80;;;;;;5034504;28;20302;-71
2023/01/30 10:34:53;;;;;;;8.37;2.23;;;15.60;57.70;;;;;;5034374;28;20414;-72
2023/01/30 10:37:43;;;;;;;10.23;2.20;;;14.80;61.20;;;;;;5034792;28;20398;-72
2023/01/30 10:40:11;;;;;;;4.67;2.03;;;14.20;66.50;;;;;;5065765;28;20424;-71
2023/01/30 10:42:42;;;;;;;3.00;1.80;;;13.70;78.00;;;;;;5053109;28;21001;-72
2023/01/30 10:45:15;;;;;;;3.43;2.40;;;13.20;90.10;;;;;;5050148;28;20472;-72
2023/01/30 10:48:11;;;;;;;5.30;4.03;;;13.60;99.90;;;;;;5034653;28;20390;-73
2023/01/30 10:51:03;;;;;;;6.17;2.03;;;14.60;97.10;;;;;;5034417;28;20481;-72
2023/01/30 10:54:13;;;;;;;2.60;1.97;;;14.40;93.90;;;;;;5032919;28;20468;-72
2023/01/30 10:56:47;;;;;;;4.23;1.80;;;13.80;95.20;;;;;;5017384;28;20410;-71
2023/01/30 10:59:22;;;;;;;3.87;1.77;;;13.40;98.40;;;;;;5034514;28;20422;-72
2023/01/30 11:01:55;;;;;;;14.63;2.27;;;13.20;99.90;;;;;;5033235;28;20421;-69
2023/01/30 11:04:32;;;;;;;6.57;2.63;;;13.00;99.90;;;;;;5034194;28;20410;-69
2023/01/30 11:07:00;;;;;;;6.83;2.33;;;12.60;99.90;;;;;;5034400;28;20880;-70
2023/01/30 11:09:41;;;;;;;9.40;2.13;;;12.40;99.90;;;;;;5033620;28;20452;-71
2023/01/30 11:12:06;;;;;;;4.30;1.77;;;12.20;99.90;;;;;;5033400;28;20446;-71
2023/01/30 11:14:57;;;;;;;8.70;2.17;;;11.90;99.90;;;;;;5033325;28;20497;-72
2023/01/30 11:17:28;;;;;;;3.20;1.50;;;11.60;99.90;;;;;;5033993;28;20160;-72
2023/01/30 11:20:07;;;;;;;5.67;1.80;;;11.30;99.90;;;;;;5033499;28;20433;-72
2023/01/30 11:22:35;;;;;;;3.10;2.33;;;11.10;99.90;;;;;;5046527;28;20769;-72
2023/01/30 11:25:04;;;;;;;11.33;2.23;;;10.90;99.90;;;;;;5053389;28;20410;-71
2023/01/30 11:27:34;;;;;;;3.70;1.70;;;10.70;99.90;;;;;;5053493;28;20408;-72
2023/01/30 11:30:13;;;;;;;10.60;2.40;;;10.60;99.90;;;;;;5053449;28;20421;-72
2023/01/30 11:32:42;;;;;;;5.60;1.63;;;10.50;99.90;;;;;;5053577;28;20405;-72
2023/01/30 11:35:07;;;;;;;8.77;2.30;;;10.30;99.90;;;;;;5052980;28;20901;-72
2023/01/30 11:37:35;;;;;;;5.17;1.80;;;10.20;99.90;;;;;;5053304;28;20394;-72
2023/01/30 11:40:16;;;;;;;8.90;2.57;;;10.10;99.90;;;;;;5053242;28;20258;-73
2023/01/30 11:42:45;;;;;;;6.07;1.50;;;10.10;99.90;;;;;;5053210;28;20910;-73
2023/01/30 11:45:11;;;;;;;7.13;1.57;;;10.00;99.90;;;;;;5048449;28;20403;-72
2023/01/30 11:47:45;;;;;;;4.43;1.40;;;9.90;99.90;;;;;;5036453;28;20390;-73
2023/01/30 11:50:16;;;;;;;9.17;2.00;;;9.90;99.90;;;;;;5062901;28;20794;-72
2023/01/30 11:52:44;;;;;;;2.70;1.90;;;9.80;99.90;;;;;;5045442;28;20757;-73
2023/01/30 11:55:14;;;;;;;3.90;1.80;;;9.80;99.90;;;;;;5032505;28;20399;-73
2023/01/30 11:57:49;;;;;;;6.30;1.90;;;9.90;99.90;;;;;;5032924;28;20443;-71
2023/01/30 12:00:23;;;;;;;14.30;3.27;;;9.80;99.90;;;;;;5032913;28;20413;-72
2023/01/30 12:02:51;;;;;;;4.27;2.80;;;9.80;99.90;;;;;;5032773;28;20810;-71
2023/01/30 12:05:24;;;;;;;3.23;1.73;;;9.80;99.90;;;;;;5031587;28;20412;-72
2023/01/30 12:07:51;;;;;;;4.00;1.20;;;9.80;99.90;;;;;;5031505;28;20402;-72
2023/01/30 12:10:22;;;;;;;4.77;1.87;;;9.80;99.90;;;;;;5032395;28;20434;-71
2023/01/30 12:12:54;;;;;;;14.73;2.67;;;9.90;99.90;;;;;;5032754;28;20406;-70
2023/01/30 12:15:28;;;;;;;17.83;2.13;;;10.00;99.90;;;;;;5031330;28;20775;-70
2023/01/30 12:18:24;;;;;;;12.80;2.57;;;10.00;99.90;;;;;;5037999;28;20409;-72
2023/01/30 12:21:08;;;;;;;7.23;1.60;;;10.00;99.90;;;;;;5032602;28;20399;-74
2023/01/30 12:24:01;;;;;;;7.10;1.80;;;9.90;99.90;;;;;;5031254;28;20418;-71
2023/01/30 12:26:36;;;;;;;3.87;1.87;;;9.80;99.90;;;;;;5032558;28;20530;-72
2023/01/30 12:29:22;;;;;;;2.10;1.10;;;9.80;99.90;;;;;;5035861;28;20482;-71
2023/01/30 12:31:50;;;;;;;6.00;2.60;;;9.80;99.90;;;;;;5051750;28;20445;-72
2023/01/30 12:34:16;;;;;;;2.27;1.30;;;9.60;99.90;;;;;;5052177;28;20421;-69
2023/01/30 12:37:16;;;;;;;4.63;2.30;;;9.60;99.90;;;;;;5052481;28;20402;-71
2023/01/30 12:40:04;;;;;;;2.73;2.10;;;9.50;99.90;;;;;;5047045;28;20201;-70
2023/01/30 12:43:04;;;;;;;4.77;2.10;;;9.50;99.90;;;;;;5041480;28;20506;-72
2023/01/30 12:45:38;;;;;;;8.37;1.60;;;9.40;99.90;;;;;;5045026;28;20931;-72
2023/01/30 12:48:30;;;;;;;4.57;2.07;;;9.30;99.90;;;;;;5044075;28;20548;-71
2023/01/30 12:51:20;;;;;;;3.73;1.77;;;9.30;99.90;;;;;;5048877;28;20457;-73
2023/01/30 12:54:00;;;;;;;4.90;2.60;;;9.40;99.90;;;;;;5052274;28;20398;-73
2023/01/30 12:56:32;;;;;;;11.57;1.90;;;9.40;99.90;;;;;;5051827;28;20472;-71
2023/01/30 12:59:21;;;;;;;4.03;2.33;;;9.40;99.90;;;;;;5052337;28;20449;-73
2023/01/30 13:01:54;;;;;;;8.10;2.47;;;9.50;99.90;;;;;;5061680;28;20455;-71
2023/01/30 13:04:42;;;;;;;4.27;2.07;;;10.10;99.90;;;;;;5050561;28;20417;-70
2023/01/30 13:07:27;;;;;;;3.10;1.60;;;11.70;99.90;;;;;;5052051;28;20431;-71
2023/01/30 13:09:59;;;;;;;6.07;2.10;;;12.10;99.90;;;;;;5051820;28;20463;-73
2023/01/30 13:12:24;;;;;;;6.70;1.97;;;12.20;99.90;;;;;;5051866;28;20479;-75
2023/01/30 13:15:07;;;;;;;5.23;1.43;;;12.20;99.90;;;;;;5050541;28;20906;-74